createdAt,value
2022-12-31T00:02:23.297Z,5.27
2022-12-31T00:06:34.700Z,5.53
2022-12-31T00:10:41.743Z,5.67
2022-12-31T00:14:47.430Z,5.73
2022-12-31T00:19:00.235Z,5.27
2022-12-31T00:27:11.099Z,5.80
2022-12-31T00:31:38.191Z,5.47
2022-12-31T00:35:43.672Z,4.60
2022-12-31T00:39:49.151Z,4.93
2022-12-31T00:43:55.241Z,5.23
2022-12-31T00:48:00.684Z,4.80
2022-12-31T00:52:06.198Z,4.50
2022-12-31T00:56:16.724Z,4.40
2022-12-31T01:00:22.242Z,4.90
2022-12-31T01:04:27.717Z,4.97
2022-12-31T01:08:33.907Z,5.50
2022-12-31T01:12:39.371Z,4.60
2022-12-31T01:16:51.661Z,4.93
2022-12-31T01:21:01.782Z,5.20
2022-12-31T01:25:07.832Z,4.93
2022-12-31T01:29:14.067Z,5.40
2022-12-31T01:33:19.901Z,5.13
2022-12-31T01:37:25.377Z,5.20
2022-12-31T01:41:35.799Z,5.07
2022-12-31T01:45:43.681Z,4.67
2022-12-31T01:49:54.855Z,5.13
2022-12-31T01:54:04.156Z,5.67
2022-12-31T01:58:19.973Z,5.50
2022-12-31T02:02:25.568Z,4.70
2022-12-31T02:06:46.171Z,5.10
2022-12-31T02:10:51.631Z,5.40
2022-12-31T02:14:57.169Z,4.37
2022-12-31T02:24:18.036Z,5.00
2022-12-31T02:28:55.564Z,5.10
2022-12-31T02:33:09.952Z,4.50
2022-12-31T02:37:17.955Z,4.47
2022-12-31T02:41:41.748Z,3.97
2022-12-31T02:46:03.213Z,4.63
2022-12-31T02:50:25.729Z,4.70
2022-12-31T02:54:58.338Z,4.50
2022-12-31T02:59:49.420Z,4.47
2022-12-31T03:04:15.032Z,4.40
2022-12-31T03:08:25.859Z,4.37
2022-12-31T03:12:48.899Z,4.13
2022-12-31T03:16:54.483Z,4.57
2022-12-31T03:21:18.580Z,4.30
2022-12-31T03:25:35.983Z,4.50
2022-12-31T03:50:12.326Z,4.10
2022-12-31T03:54:17.917Z,4.20
2022-12-31T03:58:23.550Z,4.40
2022-12-31T04:02:29.698Z,4.47
2022-12-31T04:06:35.324Z,4.43
2022-12-31T04:10:40.844Z,4.80
2022-12-31T04:14:46.303Z,4.47
2022-12-31T04:18:51.799Z,4.73
2022-12-31T04:22:57.265Z,4.63
2022-12-31T04:27:07.498Z,4.63
2022-12-31T04:31:13.668Z,4.63
2022-12-31T04:35:19.268Z,4.47
2022-12-31T04:39:25.475Z,4.90
2022-12-31T04:43:31.051Z,4.50
2022-12-31T04:47:36.559Z,4.87
2022-12-31T04:51:42.133Z,5.07
2022-12-31T04:55:47.581Z,5.27
2022-12-31T04:59:53.018Z,5.10
2022-12-31T05:03:58.803Z,5.70
2022-12-31T05:08:04.473Z,5.30
2022-12-31T05:12:09.938Z,5.40
2022-12-31T05:16:15.500Z,5.80
2022-12-31T05:20:21.059Z,5.27
2022-12-31T05:24:26.498Z,4.87
2022-12-31T05:28:32.702Z,4.80
2022-12-31T05:32:38.517Z,4.23
2022-12-31T05:36:43.965Z,4.07
2022-12-31T05:40:49.430Z,3.43
2022-12-31T05:44:55.170Z,2.90
2022-12-31T05:49:00.683Z,3.10
2022-12-31T05:53:06.236Z,3.60
2022-12-31T05:57:12.038Z,3.40
2022-12-31T06:01:17.526Z,3.27
2022-12-31T06:05:26.331Z,3.23
2022-12-31T06:09:32.225Z,3.30
2022-12-31T09:33:03.404Z,0.90
2022-12-31T09:37:18.728Z,1.03
2022-12-31T09:41:52.323Z,1.00
2022-12-31T09:46:39.882Z,1.00
2022-12-31T09:51:02.700Z,0.90
2022-12-31T09:55:37.949Z,1.00
2022-12-31T10:00:15.911Z,1.10
2022-12-31T10:04:42.159Z,1.00
2022-12-31T10:13:31.227Z,1.10
2022-12-31T10:17:45.745Z,1.13
2022-12-31T10:23:04.351Z,0.90
2022-12-31T10:27:16.506Z,1.20
2022-12-31T10:32:01.658Z,1.30
2022-12-31T10:36:31.035Z,1.03
2022-12-31T10:41:16.892Z,1.07
2022-12-31T10:45:56.556Z,1.17
2022-12-31T10:50:55.642Z,1.30
2022-12-31T10:55:28.286Z,1.33
2022-12-31T11:00:09.303Z,1.30
2022-12-31T11:05:03.113Z,1.50
2022-12-31T11:09:51.807Z,1.43
2022-12-31T11:14:54.008Z,1.53
2022-12-31T11:19:20.627Z,1.80
2022-12-31T11:24:15.014Z,1.80
2022-12-31T11:29:01.500Z,1.40
2022-12-31T11:33:51.223Z,1.30
2022-12-31T11:38:21.444Z,1.60
2022-12-31T11:56:04.370Z,1.40
2022-12-31T12:00:18.964Z,1.40
2022-12-31T12:04:24.625Z,1.30
2022-12-31T12:08:33.081Z,1.63
2022-12-31T12:12:42.987Z,1.57
2022-12-31T12:17:02.463Z,1.50
2022-12-31T12:21:15.958Z,1.40
2022-12-31T12:25:25.611Z,1.10
2022-12-31T12:29:35.579Z,1.27
2022-12-31T12:33:44.381Z,1.30
2022-12-31T12:38:06.695Z,1.40
2022-12-31T12:42:14.603Z,1.37
2022-12-31T12:50:53.929Z,1.10
2022-12-31T12:55:59.317Z,1.50
2022-12-31T13:00:45.468Z,1.20
2022-12-31T13:05:31.433Z,1.20
2022-12-31T13:09:58.536Z,1.10
2022-12-31T13:14:38.058Z,1.13
2022-12-31T13:19:20.050Z,1.10
2022-12-31T13:27:50.352Z,0.90
2022-12-31T13:31:56.928Z,1.10
2022-12-31T13:36:05.888Z,1.07
2022-12-31T13:45:04.820Z,1.03
2022-12-31T13:49:39.630Z,1.00
2022-12-31T13:53:59.674Z,1.00
2022-12-31T13:58:18.889Z,1.00
2022-12-31T14:02:48.801Z,1.30
2022-12-31T14:07:39.081Z,1.10
2022-12-31T14:12:07.268Z,1.00
2022-12-31T14:16:46.937Z,1.07
2022-12-31T14:22:04.605Z,1.00
2022-12-31T14:26:36.218Z,0.90
2022-12-31T14:30:44.836Z,1.00
2022-12-31T14:35:27.279Z,1.10
2022-12-31T14:40:06.573Z,0.90
2022-12-31T14:45:02.849Z,1.20
2022-12-31T14:49:48.248Z,1.13
2022-12-31T14:53:56.878Z,1.00
2022-12-31T14:58:29.087Z,0.77
2022-12-31T15:02:35.484Z,0.90
2022-12-31T15:07:10.480Z,2.43
2022-12-31T15:11:50.546Z,0.93
2022-12-31T15:15:55.973Z,0.80
2022-12-31T15:20:17.655Z,1.00
2022-12-31T15:28:39.784Z,1.20
2022-12-31T15:32:47.580Z,1.30
2022-12-31T15:41:14.088Z,1.50
2022-12-31T15:45:31.857Z,1.70
2022-12-31T15:49:43.198Z,2.30
2022-12-31T15:53:54.302Z,2.80
2022-12-31T15:58:12.126Z,2.53
2022-12-31T16:02:28.284Z,3.00
2022-12-31T16:06:38.480Z,2.90
2022-12-31T16:10:44.448Z,2.80
2022-12-31T16:14:56.833Z,3.20
2022-12-31T16:19:02.313Z,3.03
2022-12-31T16:23:25.906Z,3.50
2022-12-31T16:27:32.233Z,4.03
2022-12-31T16:31:37.911Z,3.50
2022-12-31T16:35:44.571Z,3.30
2022-12-31T16:40:17.277Z,3.57
2022-12-31T16:44:30.672Z,3.50
2022-12-31T16:48:37.263Z,4.03
2022-12-31T16:52:45.705Z,4.13
2022-12-31T16:56:52.329Z,3.83
2022-12-31T17:01:21.147Z,4.70
2022-12-31T17:05:28.133Z,5.10
2022-12-31T17:09:37.812Z,5.30
2022-12-31T17:13:43.371Z,5.10
2022-12-31T17:17:58.332Z,5.20
2022-12-31T17:22:09.689Z,5.30
2022-12-31T17:26:26.229Z,6.40
2022-12-31T17:30:32.694Z,5.07
2022-12-31T17:34:56.456Z,5.50
2022-12-31T17:39:18.066Z,5.57
2022-12-31T17:43:24.629Z,4.90
2022-12-31T17:47:39.815Z,4.40
2022-12-31T17:51:47.771Z,4.30
2022-12-31T17:55:56.903Z,4.10
2022-12-31T18:00:17.248Z,3.70
2022-12-31T18:04:22.724Z,3.60
2022-12-31T18:08:29.048Z,2.90
2022-12-31T18:12:35.854Z,2.50
2022-12-31T18:16:41.837Z,2.90
2022-12-31T18:20:49.139Z,3.30
2022-12-31T18:24:55.376Z,3.97
2022-12-31T18:29:14.698Z,3.60
2022-12-31T18:33:23.791Z,4.80
2022-12-31T18:37:29.944Z,5.03
2022-12-31T18:41:49.645Z,4.53
2022-12-31T18:45:55.506Z,4.10
2022-12-31T18:50:00.964Z,4.50
2022-12-31T18:54:10.631Z,9.93
2022-12-31T18:58:16.470Z,5.00
2022-12-31T19:02:21.953Z,6.10
2022-12-31T19:06:28.728Z,6.23
2022-12-31T19:10:34.964Z,7.87
2022-12-31T19:14:40.584Z,6.20
2022-12-31T19:18:47.509Z,5.73
2022-12-31T19:22:53.078Z,5.47
2022-12-31T19:27:00.718Z,3.00
2022-12-31T19:31:06.218Z,3.93
2022-12-31T19:35:13.752Z,5.00
2022-12-31T19:39:21.478Z,5.00
2022-12-31T19:43:27.238Z,5.00
2022-12-31T19:47:32.756Z,6.60
2022-12-31T19:51:38.864Z,18.80
2022-12-31T19:55:44.383Z,9.77
2022-12-31T19:59:49.865Z,11.27
2022-12-31T20:03:56.397Z,9.37
2022-12-31T20:08:01.885Z,10.20
2022-12-31T20:12:07.371Z,10.63
2022-12-31T20:16:16.908Z,13.07
2022-12-31T20:20:29.112Z,14.10
2022-12-31T20:24:34.581Z,13.63
2022-12-31T20:28:40.054Z,12.07
2022-12-31T20:32:45.526Z,10.73
2022-12-31T20:36:50.975Z,9.20
2022-12-31T20:41:03.169Z,9.13
2022-12-31T20:45:10.959Z,9.20
2022-12-31T20:49:16.528Z,9.57
2022-12-31T20:53:22.108Z,8.30
2022-12-31T20:57:31.685Z,8.00
2022-12-31T21:02:11.790Z,7.80
2022-12-31T21:06:05.532Z,8.20
2022-12-31T21:10:11.042Z,7.20
2022-12-31T21:14:16.573Z,6.97
2022-12-31T21:18:23.034Z,7.60
2022-12-31T21:22:30.068Z,7.70
2022-12-31T21:26:35.752Z,7.60
2022-12-31T21:30:42.079Z,7.70
2022-12-31T21:35:06.393Z,7.97
2022-12-31T21:39:13.090Z,6.97
2022-12-31T21:43:18.792Z,5.80
2022-12-31T21:47:47.444Z,5.80
2022-12-31T21:52:11.671Z,5.30
2022-12-31T21:56:19.241Z,5.13
2022-12-31T22:00:43.724Z,4.77
2022-12-31T22:05:10.463Z,4.17
2022-12-31T22:09:15.073Z,4.13
2022-12-31T22:13:21.239Z,4.10
2022-12-31T22:17:27.067Z,4.37
2022-12-31T22:21:32.577Z,4.75
2022-12-31T22:25:38.988Z,4.57
2022-12-31T22:29:44.424Z,4.10
2022-12-31T22:33:50.438Z,3.70
2022-12-31T22:37:59.041Z,4.13
2022-12-31T22:42:07.137Z,3.60
2022-12-31T22:46:20.914Z,4.00
2022-12-31T22:50:26.376Z,3.95
2022-12-31T22:54:31.898Z,3.53
2022-12-31T22:58:37.831Z,4.20
2022-12-31T23:02:43.409Z,4.13
2022-12-31T23:06:48.979Z,5.27
2022-12-31T23:11:00.477Z,8.00
2022-12-31T23:15:25.488Z,14.80
2022-12-31T23:19:49.356Z,21.10
2022-12-31T23:23:54.852Z,23.60
2022-12-31T23:28:00.539Z,19.35
2022-12-31T23:32:07.251Z,13.83
2022-12-31T23:36:13.824Z,12.50
2022-12-31T23:40:21.754Z,12.23
2022-12-31T23:44:28.521Z,10.93
2022-12-31T23:48:33.974Z,11.13
2022-12-31T23:52:39.474Z,9.67
2022-12-31T23:56:45.001Z,9.07
